createdAt,value
2018-11-28T00:02:15.630Z,2.00
2018-11-28T00:04:43.372Z,1.87
2018-11-28T00:07:11.133Z,1.50
2018-11-28T00:09:38.755Z,2.17
2018-11-28T00:12:06.381Z,2.10
2018-11-28T00:14:34.164Z,1.90
2018-11-28T00:17:01.764Z,2.17
2018-11-28T00:19:29.439Z,2.20
2018-11-28T00:21:57.122Z,1.50
2018-11-28T00:24:24.803Z,1.60
2018-11-28T00:26:52.467Z,2.00
2018-11-28T00:29:20.138Z,1.57
2018-11-28T00:31:47.824Z,1.43
2018-11-28T00:34:15.491Z,1.70
2018-11-28T00:36:43.298Z,2.10
2018-11-28T00:39:10.988Z,1.60
2018-11-28T00:41:38.658Z,1.80
2018-11-28T00:44:06.349Z,1.83
2018-11-28T00:46:34.000Z,2.20
2018-11-28T00:49:01.699Z,1.43
2018-11-28T00:51:29.332Z,1.40
2018-11-28T00:53:56.971Z,1.67
2018-11-28T00:56:24.723Z,1.70
2018-11-28T00:58:52.375Z,1.40
2018-11-28T01:01:20.010Z,1.67
2018-11-28T01:03:47.691Z,1.40
2018-11-28T01:06:15.334Z,1.90
2018-11-28T01:08:43.115Z,1.60
2018-11-28T01:11:10.755Z,1.60
2018-11-28T01:13:38.413Z,1.70
2018-11-28T01:16:06.206Z,1.60
2018-11-28T01:18:33.866Z,1.53
2018-11-28T01:21:01.709Z,1.50
2018-11-28T01:23:29.413Z,1.30
2018-11-28T01:25:57.008Z,1.67
2018-11-28T01:28:24.658Z,1.40
2018-11-28T01:30:52.325Z,1.73
2018-11-28T01:33:20.051Z,1.67
2018-11-28T01:35:47.650Z,1.90
2018-11-28T01:38:15.305Z,1.60
2018-11-28T01:40:42.920Z,1.60
2018-11-28T01:43:10.714Z,1.40
2018-11-28T01:45:38.391Z,1.60
2018-11-28T01:48:06.025Z,1.70
2018-11-28T01:50:33.745Z,1.97
2018-11-28T01:53:01.336Z,1.57
2018-11-28T01:55:28.941Z,1.50
2018-11-28T01:57:56.735Z,1.43
2018-11-28T02:00:25.535Z,1.30
2018-11-28T02:02:58.498Z,1.33
2018-11-28T02:05:26.161Z,1.60
2018-11-28T02:07:53.859Z,1.67
2018-11-28T02:10:21.495Z,1.50
2018-11-28T02:12:49.172Z,1.30
2018-11-28T02:15:19.692Z,1.23
2018-11-28T02:17:47.402Z,1.80
2018-11-28T02:20:16.618Z,1.43
2018-11-28T02:22:44.519Z,1.53
2018-11-28T02:25:13.266Z,1.37
2018-11-28T02:27:40.927Z,1.70
2018-11-28T02:30:13.092Z,1.20
2018-11-28T02:32:41.504Z,1.60
2018-11-28T02:35:10.311Z,1.27
2018-11-28T02:37:38.151Z,1.53
2018-11-28T02:40:08.383Z,1.40
2018-11-28T02:42:36.058Z,1.30
2018-11-28T02:45:05.649Z,1.30
2018-11-28T02:47:33.301Z,1.67
2018-11-28T02:50:01.037Z,1.57
2018-11-28T02:52:28.647Z,1.40
2018-11-28T02:54:56.243Z,1.40
2018-11-28T02:57:23.915Z,1.30
2018-11-28T02:59:51.583Z,1.60
2018-11-28T03:02:19.253Z,1.60
2018-11-28T03:04:46.922Z,1.30
2018-11-28T03:07:14.642Z,1.53
2018-11-28T03:09:42.379Z,1.30
2018-11-28T03:12:10.068Z,1.63
2018-11-28T03:14:37.699Z,1.40
2018-11-28T03:17:05.761Z,1.70
2018-11-28T03:19:33.393Z,1.73
2018-11-28T03:22:01.003Z,1.60
2018-11-28T03:24:28.625Z,1.30
2018-11-28T03:26:56.325Z,1.60
2018-11-28T03:29:24.006Z,1.60
2018-11-28T03:31:51.650Z,1.90
2018-11-28T03:34:19.296Z,2.17
2018-11-28T03:36:46.919Z,1.40
2018-11-28T03:39:14.579Z,1.90
2018-11-28T03:41:42.291Z,1.47
2018-11-28T03:44:09.975Z,1.47
2018-11-28T03:46:37.701Z,1.47
2018-11-28T03:49:05.383Z,1.20
2018-11-28T03:51:33.042Z,1.50
2018-11-28T03:54:00.733Z,1.40
2018-11-28T03:56:28.373Z,1.40
2018-11-28T03:58:56.104Z,1.53
2018-11-28T04:01:23.952Z,1.63
2018-11-28T04:03:51.650Z,1.70
2018-11-28T04:06:19.548Z,1.50
2018-11-28T04:08:47.213Z,1.50
2018-11-28T04:11:15.789Z,1.53
2018-11-28T04:13:43.517Z,1.30
2018-11-28T04:16:11.348Z,1.20
2018-11-28T04:18:39.074Z,1.20
2018-11-28T04:21:06.709Z,1.50
2018-11-28T04:23:34.518Z,1.50
2018-11-28T04:26:02.179Z,2.00
2018-11-28T04:28:29.807Z,1.27
2018-11-28T04:30:58.228Z,1.70
2018-11-28T04:33:26.684Z,1.53
2018-11-28T04:39:01.041Z,1.83
2018-11-28T04:41:29.489Z,1.50
2018-11-28T04:43:59.342Z,1.90
2018-11-28T04:46:31.272Z,1.73
2018-11-28T04:48:59.548Z,1.37
2018-11-28T04:51:28.604Z,1.30
2018-11-28T04:53:58.002Z,1.40
2018-11-28T04:56:28.773Z,1.47
2018-11-28T04:58:57.654Z,1.57
2018-11-28T05:01:31.827Z,1.80
2018-11-28T05:04:09.272Z,1.30
2018-11-28T05:07:42.669Z,1.57
2018-11-28T05:10:18.969Z,1.57
2018-11-28T05:12:53.097Z,1.60
2018-11-28T05:15:23.349Z,1.57
2018-11-28T05:17:53.997Z,1.63
2018-11-28T05:20:26.948Z,1.50
2018-11-28T05:22:58.651Z,1.53
2018-11-28T05:25:49.371Z,1.50
2018-11-28T05:28:17.313Z,1.40
2018-11-28T05:30:45.253Z,1.43
2018-11-28T05:33:13.125Z,1.43
2018-11-28T05:35:41.214Z,1.60
2018-11-28T05:38:10.610Z,1.60
2018-11-28T05:40:40.057Z,1.53
2018-11-28T05:43:11.192Z,1.70
2018-11-28T05:45:45.123Z,1.30
2018-11-28T05:48:12.828Z,1.60
2018-11-28T05:50:41.531Z,1.33
2018-11-28T05:53:09.216Z,2.00
2018-11-28T05:55:37.043Z,1.80
2018-11-28T05:58:05.428Z,1.70
2018-11-28T06:00:37.966Z,1.43
2018-11-28T06:03:10.232Z,2.00
2018-11-28T06:05:38.145Z,1.43
2018-11-28T06:08:06.690Z,1.63
2018-11-28T06:10:34.492Z,1.70
2018-11-28T06:13:02.797Z,1.83
2018-11-28T06:15:30.681Z,1.63
2018-11-28T06:17:58.935Z,1.80
2018-11-28T06:20:26.763Z,1.50
2018-11-28T06:22:54.433Z,1.30
2018-11-28T06:25:22.537Z,1.50
2018-11-28T06:27:50.457Z,1.70
2018-11-28T06:30:19.052Z,1.30
2018-11-28T06:32:51.324Z,2.80
2018-11-28T06:35:15.271Z,1.83
2018-11-28T06:37:43.177Z,2.60
2018-11-28T06:40:13.798Z,2.63
2018-11-28T06:42:41.671Z,3.13
2018-11-28T06:45:13.521Z,2.13
2018-11-28T06:47:41.244Z,2.80
2018-11-28T06:50:13.693Z,2.10
2018-11-28T06:52:41.535Z,2.33
2018-11-28T06:55:10.625Z,3.20
2018-11-28T06:57:39.718Z,2.10
2018-11-28T07:00:16.672Z,2.60
2018-11-28T07:02:44.620Z,2.20
2018-11-28T07:05:12.556Z,2.60
2018-11-28T07:07:40.258Z,2.67
2018-11-28T07:10:09.595Z,2.47
2018-11-28T07:12:37.257Z,2.37
2018-11-28T07:15:06.537Z,2.20
2018-11-28T07:17:34.124Z,2.10
2018-11-28T07:20:01.919Z,2.50
2018-11-28T07:22:29.560Z,2.20
2018-11-28T07:24:57.393Z,2.83
2018-11-28T07:27:25.202Z,2.87
2018-11-28T07:29:52.816Z,2.17
2018-11-28T07:32:20.478Z,2.90
2018-11-28T07:34:48.088Z,2.90
2018-11-28T07:37:15.751Z,3.27
2018-11-28T07:39:43.426Z,3.60
2018-11-28T07:42:11.085Z,3.20
2018-11-28T07:44:38.866Z,3.40
2018-11-28T07:47:07.262Z,3.13
2018-11-28T07:49:35.066Z,3.40
2018-11-28T07:52:02.729Z,3.10
2018-11-28T07:54:30.375Z,2.50
2018-11-28T07:56:58.092Z,2.43
2018-11-28T07:59:25.748Z,3.90
2018-11-28T08:01:53.585Z,2.83
2018-11-28T08:04:21.521Z,2.73
2018-11-28T08:06:48.980Z,3.30
2018-11-28T08:09:16.695Z,3.20
2018-11-28T08:11:44.395Z,2.90
2018-11-28T08:14:12.051Z,2.90
2018-11-28T08:16:39.724Z,3.00
2018-11-28T08:19:07.373Z,2.70
2018-11-28T08:21:35.171Z,3.00
2018-11-28T08:24:02.908Z,3.20
2018-11-28T08:26:34.625Z,2.40
2018-11-28T08:29:02.314Z,2.40
2018-11-28T08:31:30.007Z,2.20
2018-11-28T08:33:57.741Z,2.90
2018-11-28T08:36:25.440Z,2.43
2018-11-28T08:38:53.179Z,2.83
2018-11-28T08:41:20.840Z,3.37
2018-11-28T08:43:48.698Z,2.37
2018-11-28T08:46:16.386Z,2.30
2018-11-28T08:48:44.056Z,2.70
2018-11-28T08:51:11.774Z,2.30
2018-11-28T08:53:39.392Z,2.50
2018-11-28T08:56:07.153Z,2.53
2018-11-28T08:58:34.784Z,2.60
2018-11-28T09:01:02.488Z,2.80
2018-11-28T09:03:30.328Z,2.57
2018-11-28T09:05:58.164Z,2.60
2018-11-28T09:08:27.071Z,2.83
2018-11-28T09:10:55.187Z,2.63
2018-11-28T09:13:22.931Z,3.00
2018-11-28T09:15:50.727Z,2.27
2018-11-28T09:18:18.418Z,3.43
2018-11-28T09:20:46.193Z,2.33
2018-11-28T09:23:13.865Z,2.30
2018-11-28T09:25:41.511Z,2.20
2018-11-28T09:28:09.363Z,2.13
2018-11-28T09:30:37.028Z,1.90
2018-11-28T09:33:05.019Z,2.77
2018-11-28T09:35:32.762Z,2.70
2018-11-28T09:38:00.408Z,2.80
2018-11-28T09:40:28.082Z,2.37
2018-11-28T09:42:57.659Z,2.50
2018-11-28T09:45:25.446Z,2.70
2018-11-28T09:47:53.140Z,2.37
2018-11-28T09:50:21.732Z,2.77
2018-11-28T09:52:49.458Z,2.80
2018-11-28T09:55:24.550Z,2.40
2018-11-28T09:57:52.285Z,2.63
2018-11-28T10:00:21.855Z,3.10
2018-11-28T10:02:50.552Z,2.67
2018-11-28T10:05:19.334Z,2.33
2018-11-28T10:07:47.082Z,2.37
2018-11-28T10:10:14.774Z,2.10
2018-11-28T10:12:42.503Z,2.33
2018-11-28T10:15:17.445Z,2.57
2018-11-28T10:17:45.204Z,2.20
2018-11-28T10:20:13.758Z,2.13
2018-11-28T10:22:41.626Z,2.47
2018-11-28T10:25:10.940Z,2.70
2018-11-28T10:27:38.622Z,2.33
2018-11-28T10:30:14.599Z,2.97
2018-11-28T10:32:42.307Z,2.77
2018-11-28T10:35:10.077Z,2.13
2018-11-28T10:37:37.781Z,2.50
2018-11-28T10:40:14.582Z,2.40
2018-11-28T10:42:42.376Z,2.47
2018-11-28T10:45:11.385Z,1.90
2018-11-28T10:47:39.026Z,2.63
2018-11-28T10:50:09.480Z,3.10
2018-11-28T10:52:37.466Z,2.47
2018-11-28T10:55:06.574Z,2.20
2018-11-28T10:57:34.277Z,2.10
2018-11-28T11:00:01.937Z,2.93
2018-11-28T11:02:35.067Z,2.00
2018-11-28T11:05:08.371Z,2.30
2018-11-28T11:07:41.544Z,2.60
2018-11-28T11:10:14.684Z,2.13
2018-11-28T11:12:47.874Z,2.73
2018-11-28T11:15:15.770Z,2.83
2018-11-28T11:17:43.497Z,2.80
2018-11-28T11:20:11.259Z,3.17
2018-11-28T11:22:39.253Z,2.80
2018-11-28T11:25:07.124Z,2.80
2018-11-28T11:27:36.787Z,3.20
2018-11-28T11:30:06.019Z,2.23
2018-11-28T11:32:33.734Z,2.57
2018-11-28T11:35:01.425Z,3.10
2018-11-28T11:37:29.119Z,3.97
2018-11-28T11:39:57.368Z,3.37
2018-11-28T11:42:25.686Z,2.57
2018-11-28T11:44:54.303Z,2.87
2018-11-28T11:47:21.990Z,3.10
2018-11-28T11:49:49.638Z,2.57
2018-11-28T11:52:17.270Z,4.67
2018-11-28T11:54:45.082Z,3.30
2018-11-28T11:57:12.738Z,3.70
2018-11-28T11:59:40.418Z,2.70
2018-11-28T12:02:08.099Z,2.73
2018-11-28T12:04:35.797Z,3.27
2018-11-28T12:07:03.578Z,2.90
2018-11-28T12:09:31.234Z,2.90
2018-11-28T12:11:58.882Z,2.90
2018-11-28T12:14:26.598Z,3.93
2018-11-28T12:16:54.249Z,4.20
2018-11-28T12:19:22.074Z,3.97
2018-11-28T12:21:49.729Z,4.13
2018-11-28T12:24:17.379Z,4.23
2018-11-28T12:26:45.032Z,3.90
2018-11-28T12:29:12.692Z,3.90
2018-11-28T12:31:40.358Z,4.90
2018-11-28T12:34:08.006Z,4.00
2018-11-28T12:36:35.721Z,4.00
2018-11-28T12:39:05.440Z,5.20
2018-11-28T12:41:33.098Z,5.80
2018-11-28T12:44:00.793Z,4.70
2018-11-28T12:46:28.555Z,5.73
2018-11-28T12:48:56.304Z,5.33
2018-11-28T12:51:23.992Z,5.03
2018-11-28T12:53:51.724Z,4.57
2018-11-28T12:56:19.411Z,5.53
2018-11-28T12:58:47.150Z,4.27
2018-11-28T13:01:14.820Z,5.47
2018-11-28T13:03:42.472Z,4.83
2018-11-28T13:06:10.207Z,4.90
2018-11-28T13:08:38.935Z,5.47
2018-11-28T13:11:07.476Z,5.40
2018-11-28T13:13:35.227Z,5.07
2018-11-28T13:16:02.988Z,5.50
2018-11-28T13:18:30.610Z,5.13
2018-11-28T13:20:58.262Z,6.00
2018-11-28T13:23:25.976Z,5.37
2018-11-28T13:25:53.628Z,5.00
2018-11-28T13:28:21.338Z,5.00
2018-11-28T13:30:49.039Z,4.43
2018-11-28T13:33:16.646Z,4.30
2018-11-28T13:35:44.332Z,5.40
2018-11-28T13:38:12.559Z,6.90
2018-11-28T13:40:40.619Z,6.53
2018-11-28T13:43:08.298Z,6.40
2018-11-28T13:45:37.669Z,5.70
2018-11-28T13:48:05.458Z,6.60
2018-11-28T13:50:33.113Z,5.90
2018-11-28T13:53:02.592Z,6.20
2018-11-28T13:55:41.851Z,5.63
2018-11-28T13:58:00.193Z,6.20
2018-11-28T14:00:27.860Z,5.60
2018-11-28T14:02:55.586Z,6.17
2018-11-28T14:05:23.284Z,7.07
2018-11-28T14:07:51.024Z,6.30
2018-11-28T14:10:18.660Z,5.50
2018-11-28T14:12:52.960Z,6.30
2018-11-28T14:15:21.439Z,6.07
2018-11-28T14:17:58.379Z,5.80
2018-11-28T14:20:26.071Z,6.17
2018-11-28T14:22:53.684Z,6.67
2018-11-28T14:25:21.454Z,5.77
2018-11-28T14:27:49.119Z,6.27
2018-11-28T14:30:17.759Z,6.10
2018-11-28T14:32:45.769Z,6.10
2018-11-28T14:35:13.539Z,6.80
2018-11-28T14:37:41.237Z,5.40
2018-11-28T14:40:13.757Z,6.30
2018-11-28T14:42:41.989Z,6.70
2018-11-28T14:45:12.980Z,5.90
2018-11-28T14:47:40.705Z,5.60
2018-11-28T14:50:13.572Z,5.60
2018-11-28T14:52:41.315Z,5.03
2018-11-28T14:55:11.046Z,5.43
2018-11-28T14:57:39.093Z,6.90
2018-11-28T15:00:15.808Z,6.83
2018-11-28T15:02:43.630Z,5.67
2018-11-28T15:05:41.161Z,5.50
2018-11-28T15:08:16.837Z,5.90
2018-11-28T15:10:56.172Z,6.10
2018-11-28T15:13:23.896Z,6.23
2018-11-28T15:15:51.723Z,5.93
2018-11-28T15:18:19.400Z,5.93
2018-11-28T15:20:47.076Z,5.30
2018-11-28T15:23:15.049Z,6.60
2018-11-28T15:25:42.762Z,6.30
2018-11-28T15:28:10.570Z,6.17
2018-11-28T15:30:38.237Z,7.20
2018-11-28T15:33:05.935Z,6.23
2018-11-28T15:35:33.601Z,6.80
2018-11-28T15:38:01.645Z,6.67
2018-11-28T15:40:29.388Z,7.13
2018-11-28T15:42:57.061Z,5.90
2018-11-28T15:45:24.867Z,6.43
2018-11-28T15:47:52.550Z,6.40
2018-11-28T15:50:20.177Z,6.03
2018-11-28T15:52:47.861Z,5.93
2018-11-28T15:55:15.542Z,6.13
2018-11-28T15:57:44.059Z,6.67
2018-11-28T16:00:21.116Z,5.80
2018-11-28T16:02:48.874Z,6.00
2018-11-28T16:05:16.643Z,6.10
2018-11-28T16:07:44.349Z,5.23
2018-11-28T16:10:18.422Z,6.23
2018-11-28T16:12:46.350Z,6.30
2018-11-28T16:15:17.304Z,6.60
2018-11-28T16:17:45.003Z,5.80
2018-11-28T16:20:12.669Z,6.50
2018-11-28T16:22:40.389Z,5.53
2018-11-28T16:25:09.555Z,5.53
2018-11-28T16:27:41.727Z,6.33
2018-11-28T16:30:09.879Z,5.33
2018-11-28T16:32:37.533Z,5.50
2018-11-28T16:35:07.029Z,6.70
2018-11-28T16:37:34.699Z,5.80
2018-11-28T16:40:02.327Z,5.20
2018-11-28T16:42:29.971Z,5.60
2018-11-28T16:44:57.658Z,5.97
2018-11-28T16:47:25.278Z,5.90
2018-11-28T16:49:53.035Z,5.83
2018-11-28T16:52:20.696Z,5.70
2018-11-28T16:54:48.380Z,5.40
2018-11-28T16:57:16.036Z,5.60
2018-11-28T16:59:43.701Z,5.70
2018-11-28T17:02:11.361Z,5.77
2018-11-28T17:04:39.043Z,6.00
2018-11-28T17:07:06.751Z,5.13
2018-11-28T17:09:34.408Z,5.73
2018-11-28T17:12:02.074Z,5.53
2018-11-28T17:14:29.788Z,6.07
2018-11-28T17:16:57.465Z,5.47
2018-11-28T17:19:25.110Z,4.83
2018-11-28T17:21:52.792Z,5.77
2018-11-28T17:24:20.491Z,5.40
2018-11-28T17:26:48.164Z,5.43
2018-11-28T17:29:15.824Z,5.60
2018-11-28T17:31:43.649Z,5.47
2018-11-28T17:34:11.305Z,5.80
2018-11-28T17:36:38.900Z,5.90
2018-11-28T17:39:11.050Z,4.70
2018-11-28T17:41:39.099Z,5.40
2018-11-28T17:44:06.763Z,5.10
2018-11-28T17:46:34.563Z,5.13
2018-11-28T17:49:02.342Z,5.23
2018-11-28T17:51:29.985Z,5.03
2018-11-28T17:53:57.682Z,4.13
2018-11-28T17:56:25.352Z,4.87
2018-11-28T17:58:52.996Z,5.17
2018-11-28T18:01:24.608Z,4.83
2018-11-28T18:03:52.235Z,4.93
2018-11-28T18:06:20.016Z,4.80
2018-11-28T18:08:47.688Z,5.27
2018-11-28T18:11:15.607Z,5.30
2018-11-28T18:13:43.714Z,4.60
2018-11-28T18:16:12.172Z,5.00
2018-11-28T18:18:40.552Z,4.50
2018-11-28T18:21:07.552Z,4.87
2018-11-28T18:23:35.265Z,5.43
2018-11-28T18:26:06.140Z,5.10
2018-11-28T18:28:33.975Z,5.50
2018-11-28T18:31:01.689Z,4.97
2018-11-28T18:33:29.311Z,4.93
2018-11-28T18:35:56.979Z,5.20
2018-11-28T18:38:24.623Z,4.13
2018-11-28T18:40:52.374Z,4.43
2018-11-28T18:43:20.055Z,4.77
2018-11-28T18:45:50.157Z,5.17
2018-11-28T18:48:17.781Z,4.60
2018-11-28T18:50:45.444Z,5.63
2018-11-28T18:53:13.059Z,5.77
2018-11-28T18:55:40.678Z,5.20
2018-11-28T18:58:09.574Z,4.77
2018-11-28T19:00:37.552Z,5.10
2018-11-28T19:03:06.969Z,5.53
2018-11-28T19:05:34.868Z,5.50
2018-11-28T19:08:02.628Z,5.30
2018-11-28T19:10:30.305Z,4.90
2018-11-28T19:12:58.056Z,4.90
2018-11-28T19:15:27.626Z,5.80
2018-11-28T19:17:56.012Z,5.40
2018-11-28T19:20:23.971Z,5.87
2018-11-28T19:22:52.601Z,6.40
2018-11-28T19:25:21.480Z,5.00
2018-11-28T19:27:49.135Z,5.07
2018-11-28T19:30:23.119Z,4.93
2018-11-28T19:32:50.781Z,5.13
2018-11-28T19:35:18.500Z,5.50
2018-11-28T19:37:46.206Z,4.57
2018-11-28T19:40:17.655Z,5.60
2018-11-28T19:42:46.220Z,5.60
2018-11-28T19:45:13.875Z,5.30
2018-11-28T19:47:41.613Z,5.30
2018-11-28T19:50:16.195Z,5.73
2018-11-28T19:52:44.046Z,5.10
2018-11-28T19:55:11.756Z,5.63
2018-11-28T19:57:39.416Z,5.30
2018-11-28T20:00:14.190Z,5.77
2018-11-28T20:02:41.863Z,5.70
2018-11-28T20:05:09.588Z,5.20
2018-11-28T20:07:37.277Z,4.90
2018-11-28T20:10:08.250Z,5.73
2018-11-28T20:12:35.961Z,5.27
2018-11-28T20:15:03.765Z,5.70
2018-11-28T20:17:31.448Z,5.70
2018-11-28T20:19:59.109Z,5.13
2018-11-28T20:22:26.803Z,5.40
2018-11-28T20:24:54.438Z,4.40
2018-11-28T20:27:22.139Z,4.90
2018-11-28T20:29:49.830Z,5.20
2018-11-28T20:32:17.486Z,5.30
2018-11-28T20:34:45.133Z,5.77
2018-11-28T20:37:12.809Z,4.93
2018-11-28T20:39:40.533Z,5.20
2018-11-28T20:42:08.151Z,4.80
2018-11-28T20:44:35.916Z,5.03
2018-11-28T20:47:04.326Z,4.60
2018-11-28T20:49:31.335Z,5.23
2018-11-28T20:52:00.002Z,4.83
2018-11-28T20:54:27.738Z,5.67
2018-11-28T20:56:55.464Z,4.87
2018-11-28T20:59:23.092Z,5.07
2018-11-28T21:01:50.699Z,4.90
2018-11-28T21:04:18.466Z,5.10
2018-11-28T21:06:46.113Z,5.20
2018-11-28T21:09:13.756Z,5.33
2018-11-28T21:11:41.530Z,5.43
2018-11-28T21:14:09.376Z,5.07
2018-11-28T21:16:37.368Z,4.73
2018-11-28T21:19:05.020Z,5.37
2018-11-28T21:21:32.707Z,5.07
2018-11-28T21:24:00.340Z,5.23
2018-11-28T21:26:27.960Z,4.77
2018-11-28T21:28:55.622Z,5.10
2018-11-28T21:31:23.344Z,5.27
2018-11-28T21:33:50.952Z,4.40
2018-11-28T21:36:18.548Z,5.00
2018-11-28T21:38:46.231Z,4.37
2018-11-28T21:41:13.878Z,5.00
2018-11-28T21:43:41.587Z,5.27
2018-11-28T21:46:09.243Z,5.00
2018-11-28T21:48:36.884Z,4.73
2018-11-28T21:51:04.675Z,4.60
2018-11-28T21:53:32.285Z,4.70
2018-11-28T21:55:59.924Z,5.23
2018-11-28T21:58:27.595Z,5.57
2018-11-28T22:00:56.316Z,4.33
2018-11-28T22:03:23.963Z,5.10
2018-11-28T22:05:51.754Z,4.60
2018-11-28T22:08:19.780Z,4.60
2018-11-28T22:10:47.385Z,4.70
2018-11-28T22:13:15.042Z,4.53
2018-11-28T22:15:42.735Z,4.70
2018-11-28T22:18:10.400Z,4.20
2018-11-28T22:20:38.151Z,4.00
2018-11-28T22:23:05.757Z,4.20
2018-11-28T22:25:33.520Z,4.47
2018-11-28T22:28:01.374Z,4.27
2018-11-28T22:30:29.253Z,4.60
2018-11-28T22:32:57.382Z,4.73
2018-11-28T22:35:25.050Z,4.40
2018-11-28T22:37:52.756Z,4.50
2018-11-28T22:40:22.350Z,4.80
2018-11-28T22:42:50.095Z,4.27
2018-11-28T22:45:22.565Z,3.90
2018-11-28T22:47:50.416Z,4.40
2018-11-28T22:50:18.083Z,4.47
2018-11-28T22:52:45.769Z,4.77
2018-11-28T22:55:14.935Z,4.50
2018-11-28T22:57:42.648Z,4.90
2018-11-28T23:00:31.688Z,4.77
2018-11-28T23:03:06.593Z,4.43
2018-11-28T23:05:39.209Z,4.20
2018-11-28T23:08:07.834Z,4.47
2018-11-28T23:10:35.870Z,5.00
2018-11-28T23:13:03.530Z,4.10
2018-11-28T23:15:31.323Z,4.30
2018-11-28T23:18:04.970Z,4.23
2018-11-28T23:20:32.957Z,4.77
2018-11-28T23:23:00.658Z,4.17
2018-11-28T23:25:28.374Z,4.50
2018-11-28T23:28:02.431Z,4.30
2018-11-28T23:30:30.588Z,4.07
2018-11-28T23:32:58.409Z,4.33
2018-11-28T23:35:36.117Z,4.23
2018-11-28T23:38:03.887Z,4.43
2018-11-28T23:40:31.762Z,4.90
2018-11-28T23:43:04.577Z,5.13
2018-11-28T23:45:37.182Z,4.33
2018-11-28T23:48:04.796Z,4.70
2018-11-28T23:50:32.642Z,3.93
2018-11-28T23:53:02.087Z,4.47
2018-11-28T23:55:43.172Z,3.80
2018-11-28T23:58:13.099Z,3.70
